createdAt,value
2022-10-08T00:01:18.227Z,100693.94
2022-10-08T00:03:47.442Z,100673.13
2022-10-08T00:06:18.036Z,100687.97
2022-10-08T00:08:49.333Z,100690.25
2022-10-08T00:11:19.594Z,100686.97
2022-10-08T00:13:51.496Z,100684.69
2022-10-08T00:16:23.335Z,100686.94
2022-10-08T00:18:53.384Z,100681.19
2022-10-08T00:21:25.282Z,100686.94
2022-10-08T00:23:54.347Z,100691.09
2022-10-08T00:26:25.440Z,100685.13
2022-10-08T00:28:55.199Z,100687.78
2022-10-08T00:31:26.046Z,100689.44
2022-10-08T00:33:55.709Z,100690.25
2022-10-08T00:36:24.753Z,100683.25
2022-10-08T00:38:56.587Z,100675.41
2022-10-08T00:41:26.709Z,100681.59
2022-10-08T00:43:56.362Z,100677.91
2022-10-08T00:46:32.258Z,100668.44
2022-10-08T00:49:03.409Z,100669.66
2022-10-08T00:51:31.949Z,100672.13
2022-10-08T00:54:02.002Z,100658.56
2022-10-08T00:56:33.811Z,100659.59
2022-10-08T00:59:02.667Z,100660.00
2022-10-08T01:01:32.680Z,100656.50
2022-10-08T01:04:05.648Z,100652.41
2022-10-08T01:06:42.129Z,100654.44
2022-10-08T01:09:18.621Z,100649.09
2022-10-08T01:11:49.440Z,100642.91
2022-10-08T01:14:31.571Z,100644.16
2022-10-08T01:17:06.799Z,100640.03
2022-10-08T01:20:08.594Z,100641.69
2022-10-08T01:23:05.128Z,100633.00
2022-10-08T01:25:38.384Z,100639.59
2022-10-08T01:28:12.569Z,100634.88
2022-10-08T01:30:43.327Z,100637.97
2022-10-08T01:33:14.454Z,100632.59
2022-10-08T01:35:46.738Z,100632.19
2022-10-08T01:38:18.069Z,100646.56
2022-10-08T01:40:47.095Z,100639.56
2022-10-08T01:43:19.675Z,100639.75
2022-10-08T01:45:52.215Z,100649.63
2022-10-08T01:48:23.312Z,100631.72
2022-10-08T01:50:53.724Z,100638.53
2022-10-08T01:53:23.670Z,100637.69
2022-10-08T01:55:54.321Z,100640.38
2022-10-08T01:58:29.320Z,100634.19
2022-10-08T02:00:59.000Z,100649.16
2022-10-08T02:03:26.772Z,100652.47
2022-10-08T02:05:56.187Z,100644.84
2022-10-08T02:08:24.663Z,100647.31
2022-10-08T02:10:53.104Z,100658.81
2022-10-08T02:13:23.191Z,100650.53
2022-10-08T02:15:55.105Z,100653.63
2022-10-08T02:18:32.112Z,100659.19
2022-10-08T02:21:01.423Z,100659.38
2022-10-08T02:23:31.545Z,100666.53
2022-10-08T02:26:00.655Z,100661.16
2022-10-08T02:28:32.976Z,100659.13
2022-10-08T02:31:04.266Z,100664.53
2022-10-08T02:33:34.675Z,100657.94
2022-10-08T02:36:03.489Z,100651.94
2022-10-08T02:38:34.821Z,100652.09
2022-10-08T02:41:05.650Z,100653.13
2022-10-08T02:43:38.888Z,100649.38
2022-10-08T02:46:11.673Z,100650.38
2022-10-08T02:48:42.299Z,100649.34
2022-10-08T02:51:15.912Z,100647.88
2022-10-08T02:53:45.612Z,100655.25
2022-10-08T02:56:16.838Z,100645.13
2022-10-08T02:58:46.259Z,100648.56
2022-10-08T03:01:17.531Z,100653.78
2022-10-08T03:03:49.788Z,100652.75
2022-10-08T03:06:18.835Z,100656.19
2022-10-08T03:08:49.178Z,100658.47
2022-10-08T03:11:17.559Z,100659.44
2022-10-08T03:14:46.708Z,100661.75
2022-10-08T03:17:21.066Z,100668.31
2022-10-08T03:19:49.048Z,100668.28
2022-10-08T03:22:17.093Z,100679.03
2022-10-08T03:24:46.094Z,100681.13
2022-10-08T03:27:14.876Z,100685.66
2022-10-08T03:29:42.507Z,100683.19
2022-10-08T03:32:11.036Z,100685.88
2022-10-08T03:34:40.985Z,100674.56
2022-10-08T03:37:09.027Z,100680.28
2022-10-08T03:39:37.401Z,100684.69
2022-10-08T03:42:05.890Z,100693.75
2022-10-08T03:44:33.844Z,100689.88
2022-10-08T03:47:01.627Z,100689.41
2022-10-08T03:49:29.726Z,100692.31
2022-10-08T03:51:59.175Z,100691.91
2022-10-08T03:54:27.906Z,100708.84
2022-10-08T03:56:55.775Z,100710.88
2022-10-08T03:59:23.761Z,100715.47
2022-10-08T04:01:52.204Z,100713.19
2022-10-08T04:04:24.626Z,100715.50
2022-10-08T04:06:53.450Z,100710.78
2022-10-08T04:09:22.734Z,100709.56
2022-10-08T04:11:50.778Z,100708.94
2022-10-08T04:14:19.338Z,100709.38
2022-10-08T04:16:48.551Z,100705.06
2022-10-08T04:19:17.652Z,100700.72
2022-10-08T04:21:45.503Z,100692.91
2022-10-08T04:24:13.296Z,100687.56
2022-10-08T04:26:42.494Z,100687.97
2022-10-08T04:29:12.637Z,100696.25
2022-10-08T04:31:40.817Z,100692.72
2022-10-08T04:34:08.463Z,100697.50
2022-10-08T04:36:36.185Z,100702.84
2022-10-08T04:39:03.858Z,100710.91
2022-10-08T04:41:32.042Z,100709.88
2022-10-08T04:44:02.158Z,100699.56
2022-10-08T04:46:34.618Z,100694.63
2022-10-08T04:49:02.392Z,100699.97
2022-10-08T04:51:30.828Z,100707.00
2022-10-08T04:53:59.159Z,100707.81
2022-10-08T04:56:28.497Z,100708.63
2022-10-08T04:59:02.974Z,100700.41
2022-10-08T05:01:31.550Z,100702.03
2022-10-08T05:04:00.635Z,100725.13
2022-10-08T05:06:29.977Z,100722.22
2022-10-08T05:08:59.003Z,100720.13
2022-10-08T05:11:28.278Z,100719.72
2022-10-08T05:13:58.318Z,100721.38
2022-10-08T05:16:28.380Z,100729.19
2022-10-08T05:18:56.634Z,100730.03
2022-10-08T05:21:27.319Z,100741.97
2022-10-08T05:23:56.780Z,100730.44
2022-10-08T05:26:46.647Z,100739.91
2022-10-08T05:29:15.832Z,100743.19
2022-10-08T05:31:45.905Z,100745.66
2022-10-08T05:34:14.204Z,100751.44
2022-10-08T05:36:42.975Z,100750.81
2022-10-08T05:39:11.939Z,100761.09
2022-10-08T05:41:39.905Z,100766.28
2022-10-08T05:44:08.656Z,100774.09
2022-10-08T05:46:38.053Z,100786.47
2022-10-08T05:49:09.922Z,100789.75
2022-10-08T05:51:38.666Z,100790.59
2022-10-08T05:54:06.677Z,100786.84
2022-10-08T05:56:34.813Z,100794.28
2022-10-08T05:59:02.637Z,100792.22
2022-10-08T06:01:32.587Z,100808.31
2022-10-08T06:04:07.210Z,100809.13
2022-10-08T06:06:41.240Z,100803.78
2022-10-08T06:09:10.020Z,100810.56
2022-10-08T06:11:39.834Z,100797.94
2022-10-08T06:14:08.260Z,100805.38
2022-10-08T06:16:36.917Z,100802.91
2022-10-08T06:19:05.308Z,100810.75
2022-10-08T06:21:34.157Z,100805.38
2022-10-08T06:24:05.844Z,100819.41
2022-10-08T06:26:36.556Z,100816.50
2022-10-08T06:29:06.526Z,100825.56
2022-10-08T06:31:36.622Z,100822.47
2022-10-08T06:34:04.768Z,100834.22
2022-10-08T06:36:34.343Z,100843.06
2022-10-08T06:39:07.348Z,100834.59
2022-10-08T06:41:36.382Z,100833.97
2022-10-08T06:44:05.403Z,100846.16
2022-10-08T06:46:34.161Z,100852.94
2022-10-08T06:49:02.620Z,100854.78
2022-10-08T06:51:30.567Z,100856.41
2022-10-08T06:54:05.969Z,100853.66
2022-10-08T06:56:37.359Z,100854.91
2022-10-08T06:59:05.630Z,100858.41
2022-10-08T07:01:35.416Z,100864.97
2022-10-08T07:04:06.756Z,100869.50
2022-10-08T07:06:34.738Z,100868.41
2022-10-08T07:09:04.905Z,100876.25
2022-10-08T07:11:33.862Z,100881.78
2022-10-08T07:14:02.839Z,100888.41
2022-10-08T07:16:31.720Z,100885.81
2022-10-08T07:18:59.725Z,100894.53
2022-10-08T07:21:29.511Z,100907.72
2022-10-08T07:23:57.400Z,100904.41
2022-10-08T07:26:26.699Z,100910.41
2022-10-08T07:28:57.213Z,100924.69
2022-10-08T07:31:29.921Z,100917.81
2022-10-08T07:33:58.064Z,100929.22
2022-10-08T07:36:26.656Z,100928.69
2022-10-08T07:39:55.588Z,100938.59
2022-10-08T07:42:23.908Z,100942.72
2022-10-08T07:44:51.705Z,100936.16
2022-10-08T07:47:21.703Z,100939.84
2022-10-08T07:49:49.593Z,100939.78
2022-10-08T07:52:17.579Z,100926.91
2022-10-08T07:54:45.377Z,100935.81
2022-10-08T07:57:13.160Z,100938.50
2022-10-08T07:59:41.546Z,100940.53
2022-10-08T08:02:09.830Z,100948.78
2022-10-08T08:04:39.005Z,100944.56
2022-10-08T08:07:06.802Z,100952.13
2022-10-08T08:09:34.774Z,100957.13
2022-10-08T08:12:02.426Z,100959.34
2022-10-08T08:14:30.472Z,100970.16
2022-10-08T08:16:58.151Z,100973.53
2022-10-08T08:19:27.499Z,100976.66
2022-10-08T08:22:00.331Z,100983.72
2022-10-08T08:24:29.871Z,100983.28
2022-10-08T08:26:57.930Z,100990.50
2022-10-08T08:29:26.443Z,100996.16
2022-10-08T08:31:54.261Z,100988.22
2022-10-08T08:34:24.188Z,100990.16
2022-10-08T08:36:54.520Z,100993.84
2022-10-08T08:39:24.940Z,101003.72
2022-10-08T08:42:04.061Z,100996.44
2022-10-08T08:44:35.081Z,101007.91
2022-10-08T08:47:05.453Z,101009.16
2022-10-08T08:49:43.500Z,101012.75
2022-10-08T08:52:15.946Z,101016.44
2022-10-08T08:54:47.087Z,101022.53
2022-10-08T08:57:27.712Z,101016.13
2022-10-08T08:59:58.076Z,101018.06
2022-10-08T09:02:29.402Z,101027.22
2022-10-08T09:04:58.604Z,101018.25
2022-10-08T09:07:28.390Z,101026.19
2022-10-08T09:09:59.261Z,101029.19
2022-10-08T09:12:32.830Z,101025.63
2022-10-08T09:15:03.014Z,101028.69
2022-10-08T09:17:33.287Z,101043.94
2022-10-08T09:20:02.141Z,101045.50
2022-10-08T09:22:32.280Z,101036.19
2022-10-08T09:25:07.284Z,101040.56
2022-10-08T09:27:48.810Z,101045.22
2022-10-08T09:30:38.131Z,101044.13
2022-10-08T09:33:19.757Z,101056.44
2022-10-08T09:35:50.264Z,101059.56
2022-10-08T09:38:26.322Z,101063.38
2022-10-08T09:41:20.264Z,101071.09
2022-10-08T09:44:07.958Z,101065.13
2022-10-08T09:46:40.531Z,101066.69
2022-10-08T09:49:27.372Z,101087.63
2022-10-08T09:51:55.936Z,101086.53
2022-10-08T09:54:26.652Z,101084.06
2022-10-08T09:57:00.959Z,101069.91
2022-10-08T09:59:30.177Z,101075.19
2022-10-08T10:01:58.240Z,101074.63
2022-10-08T10:04:35.442Z,101077.13
2022-10-08T10:07:04.265Z,101064.00
2022-10-08T10:09:41.104Z,101082.13
2022-10-08T10:12:17.253Z,101080.78
2022-10-08T10:14:50.415Z,101076.78
2022-10-08T10:17:22.684Z,101067.78
2022-10-08T10:19:57.163Z,101074.34
2022-10-08T10:22:29.018Z,101085.28
2022-10-08T10:25:01.744Z,101090.69
2022-10-08T10:27:34.206Z,101085.53
2022-10-08T10:30:14.105Z,101081.78
2022-10-08T10:32:46.125Z,101072.31
2022-10-08T10:35:19.025Z,101070.31
2022-10-08T10:37:49.773Z,101072.63
2022-10-08T10:40:25.022Z,101072.88
2022-10-08T10:42:59.616Z,101086.75
2022-10-08T10:45:30.914Z,101079.56
2022-10-08T10:47:58.676Z,101086.50
2022-10-08T10:50:30.746Z,101067.16
2022-10-08T10:53:07.733Z,101091.28
2022-10-08T10:55:40.290Z,101103.16
2022-10-08T10:58:27.468Z,101133.53
2022-10-08T11:01:00.080Z,101136.69
2022-10-08T11:03:35.208Z,101129.81
2022-10-08T11:06:16.452Z,101130.75
2022-10-08T11:08:47.556Z,101126.72
2022-10-08T11:11:23.064Z,101134.78
2022-10-08T11:14:02.415Z,101135.66
2022-10-08T11:16:41.695Z,101138.38
2022-10-08T11:19:19.225Z,101133.44
2022-10-08T11:21:56.917Z,101128.25
2022-10-08T11:24:36.203Z,101116.34
2022-10-08T11:27:12.047Z,101126.63
2022-10-08T11:29:49.567Z,101124.72
2022-10-08T11:32:19.148Z,101125.78
2022-10-08T11:34:51.443Z,101116.56
2022-10-08T11:37:24.797Z,101122.75
2022-10-08T11:39:58.213Z,101117.69
2022-10-08T11:42:31.630Z,101116.88
2022-10-08T11:47:55.947Z,101109.00
2022-10-08T11:50:26.872Z,101118.97
2022-10-08T11:52:57.331Z,101116.91
2022-10-08T11:55:27.510Z,101107.66
2022-10-08T11:58:07.731Z,101095.59
2022-10-08T12:00:39.874Z,101105.66
2022-10-08T12:03:22.763Z,101098.31
2022-10-08T12:05:53.184Z,101097.16
2022-10-08T12:08:50.253Z,101117.75
2022-10-08T12:11:52.584Z,101118.06
2022-10-08T12:14:47.722Z,101138.50
2022-10-08T12:17:16.048Z,101142.78
2022-10-08T12:20:02.232Z,101145.19
2022-10-08T12:22:46.069Z,101139.13
2022-10-08T12:25:32.660Z,101146.69
2022-10-08T12:28:40.454Z,101131.44
2022-10-08T12:31:27.234Z,101132.53
2022-10-08T12:34:14.542Z,101134.78
2022-10-08T12:36:52.859Z,101137.00
2022-10-08T12:39:28.465Z,101131.72
2022-10-08T12:42:04.604Z,101129.13
2022-10-08T12:44:55.588Z,101134.53
2022-10-08T12:47:29.684Z,101126.81
2022-10-08T12:49:59.926Z,101133.97
2022-10-08T12:53:29.680Z,101129.19
2022-10-08T12:55:59.548Z,101137.47
2022-10-08T12:58:31.506Z,101126.53
2022-10-08T13:01:03.536Z,101126.00
2022-10-08T13:04:35.799Z,101129.66
2022-10-08T13:07:19.708Z,101141.72
2022-10-08T13:09:47.608Z,101134.66
2022-10-08T13:12:16.762Z,101132.38
2022-10-08T13:14:45.280Z,101146.91
2022-10-08T13:17:28.904Z,101142.84
2022-10-08T13:20:12.174Z,101169.41
2022-10-08T13:22:40.640Z,101202.53
2022-10-08T13:25:37.447Z,101207.16
2022-10-08T13:28:12.740Z,101226.56
2022-10-08T13:30:40.690Z,101217.34
2022-10-08T13:33:14.120Z,101216.44
2022-10-08T13:35:43.229Z,101215.56
2022-10-08T13:38:20.944Z,101216.84
2022-10-08T13:40:54.866Z,101224.56
2022-10-08T13:43:24.179Z,101219.81
2022-10-08T13:45:52.046Z,101216.75
2022-10-08T13:48:19.784Z,101226.25
2022-10-08T13:50:49.315Z,101217.78
2022-10-08T13:53:20.959Z,101196.97
2022-10-08T13:55:50.227Z,101201.56
2022-10-08T13:58:20.857Z,101217.28
2022-10-08T14:00:50.696Z,101224.38
2022-10-08T14:03:18.627Z,101220.31
2022-10-08T14:05:47.670Z,101227.91
2022-10-08T14:08:17.948Z,101233.00
2022-10-08T14:10:46.053Z,101232.41
2022-10-08T14:13:14.662Z,101246.78
2022-10-08T14:15:42.745Z,101233.22
2022-10-08T14:18:11.857Z,101226.19
2022-10-08T14:20:39.667Z,101234.47
2022-10-08T14:23:07.492Z,101222.56
2022-10-08T14:25:35.060Z,101218.06
2022-10-08T14:28:02.926Z,101221.88
2022-10-08T14:30:33.433Z,101225.25
2022-10-08T14:33:02.123Z,101213.69
2022-10-08T14:35:32.050Z,101221.13
2022-10-08T14:38:00.593Z,101221.81
2022-10-08T14:40:29.296Z,101232.53
2022-10-08T14:42:57.121Z,101221.84
2022-10-08T14:45:25.766Z,101218.59
2022-10-08T14:47:53.385Z,101224.06
2022-10-08T14:50:21.321Z,101225.97
2022-10-08T14:52:51.331Z,101233.50
2022-10-08T14:55:20.745Z,101242.22
2022-10-08T14:57:49.972Z,101244.94
2022-10-08T15:00:17.916Z,101256.00
2022-10-08T15:02:46.851Z,101240.03
2022-10-08T15:05:15.658Z,101229.69
2022-10-08T15:07:43.522Z,101250.94
2022-10-08T15:10:13.000Z,101256.97
2022-10-08T15:12:40.605Z,101269.84
2022-10-08T15:15:10.671Z,101243.72
2022-10-08T15:17:39.013Z,101240.41
2022-10-08T15:20:07.984Z,101236.84
2022-10-08T15:22:35.811Z,101255.19
2022-10-08T15:25:06.237Z,101269.34
2022-10-08T15:27:36.478Z,101261.72
2022-10-08T15:30:04.736Z,101253.25
2022-10-08T15:32:32.565Z,101268.28
2022-10-08T15:35:00.333Z,101261.28
2022-10-08T15:37:27.955Z,101262.59
2022-10-08T15:39:55.604Z,101278.00
2022-10-08T15:42:23.399Z,101268.97
2022-10-08T15:44:53.631Z,101281.13
2022-10-08T15:47:22.587Z,101283.50
2022-10-08T15:49:50.996Z,101283.13
2022-10-08T15:52:20.685Z,101274.41
2022-10-08T15:54:48.812Z,101289.25
2022-10-08T15:57:18.959Z,101292.84
2022-10-08T15:59:46.547Z,101289.16
2022-10-08T16:02:18.112Z,101291.66
2022-10-08T16:04:47.088Z,101296.91
2022-10-08T16:07:14.710Z,101299.44
2022-10-08T16:09:44.315Z,101301.66
2022-10-08T16:12:12.174Z,101304.69
2022-10-08T16:14:40.590Z,101303.31
2022-10-08T16:17:09.400Z,101304.44
2022-10-08T16:19:39.563Z,101307.78
2022-10-08T16:22:08.749Z,101317.44
2022-10-08T16:24:36.778Z,101314.22
2022-10-08T16:27:05.665Z,101321.31
2022-10-08T16:29:34.130Z,101313.53
2022-10-08T16:32:02.693Z,101321.03
2022-10-08T16:34:32.598Z,101319.41
2022-10-08T16:37:02.140Z,101330.16
2022-10-08T16:39:31.373Z,101328.75
2022-10-08T16:42:00.985Z,101342.16
2022-10-08T16:44:29.222Z,101340.09
2022-10-08T16:46:57.818Z,101344.22
2022-10-08T16:49:27.083Z,101349.19
2022-10-08T16:52:00.731Z,101347.75
2022-10-08T16:54:30.192Z,101347.56
2022-10-08T16:56:58.810Z,101360.75
2022-10-08T16:59:29.740Z,101361.06
2022-10-08T17:02:03.332Z,101359.16
2022-10-08T17:04:36.393Z,101361.56
2022-10-08T17:07:04.956Z,101372.38
2022-10-08T17:09:34.400Z,101371.28
2022-10-08T17:12:02.482Z,101376.28
2022-10-08T17:14:32.341Z,101370.78
2022-10-08T17:17:00.919Z,101369.59
2022-10-08T17:19:30.672Z,101385.06
2022-10-08T17:21:59.733Z,101384.66
2022-10-08T17:24:27.416Z,101387.50
2022-10-08T17:26:57.330Z,101393.84
2022-10-08T17:29:25.118Z,101397.22
2022-10-08T17:31:53.759Z,101394.78
2022-10-08T17:34:23.039Z,101402.81
2022-10-08T17:36:50.913Z,101410.69
2022-10-08T17:39:20.922Z,101411.94
2022-10-08T17:41:48.579Z,101416.00
2022-10-08T17:44:21.988Z,101422.25
2022-10-08T17:46:50.980Z,101432.41
2022-10-08T17:49:22.625Z,101435.97
2022-10-08T17:51:51.145Z,101441.19
2022-10-08T17:54:21.018Z,101438.81
2022-10-08T17:56:50.860Z,101448.47
2022-10-08T17:59:22.698Z,101440.53
2022-10-08T18:01:51.011Z,101442.44
2022-10-08T18:04:20.168Z,101449.88
2022-10-08T18:06:49.319Z,101454.25
2022-10-08T18:09:19.441Z,101445.22
2022-10-08T18:11:51.076Z,101454.28
2022-10-08T18:14:20.936Z,101462.56
2022-10-08T18:16:53.015Z,101463.06
2022-10-08T18:19:21.534Z,101471.72
2022-10-08T18:21:49.430Z,101473.47
2022-10-08T18:24:19.841Z,101473.16
2022-10-08T18:26:47.712Z,101475.22
2022-10-08T18:29:15.870Z,101472.59
2022-10-08T18:31:47.856Z,101486.69
2022-10-08T18:34:18.062Z,101490.78
2022-10-08T18:36:46.691Z,101496.13
2022-10-08T18:39:16.482Z,101503.03
2022-10-08T18:41:46.268Z,101497.47
2022-10-08T18:44:17.573Z,101499.59
2022-10-08T18:46:47.509Z,101505.66
2022-10-08T18:49:16.705Z,101508.94
2022-10-08T18:51:45.946Z,101516.06
2022-10-08T18:54:13.911Z,101511.03
2022-10-08T18:56:45.803Z,101516.66
2022-10-08T18:59:16.382Z,101511.00
2022-10-08T19:01:47.438Z,101528.44
2022-10-08T19:04:16.787Z,101515.53
2022-10-08T19:06:46.807Z,101521.38
2022-10-08T19:09:14.991Z,101518.25
2022-10-08T19:11:45.409Z,101520.50
2022-10-08T19:14:14.762Z,101528.34
2022-10-08T19:16:43.917Z,101518.66
2022-10-08T19:19:15.900Z,101515.38
2022-10-08T19:21:44.414Z,101530.25
2022-10-08T19:25:13.898Z,101529.97
2022-10-08T19:27:42.273Z,101538.09
2022-10-08T19:30:10.495Z,101539.88
2022-10-08T19:32:38.592Z,101538.75
2022-10-08T19:35:10.213Z,101547.50
2022-10-08T19:37:38.556Z,101550.13
2022-10-08T19:40:07.338Z,101552.19
2022-10-08T19:42:34.959Z,101552.50
2022-10-08T19:45:03.293Z,101559.09
2022-10-08T19:47:31.182Z,101560.13
2022-10-08T19:49:59.827Z,101558.50
2022-10-08T19:52:31.390Z,101568.16
2022-10-08T19:54:59.468Z,101558.16
2022-10-08T19:57:27.276Z,101564.41
2022-10-08T19:59:55.365Z,101561.88
2022-10-08T20:02:23.420Z,101561.47
2022-10-08T20:04:51.448Z,101566.91
2022-10-08T20:07:19.707Z,101572.59
2022-10-08T20:09:49.623Z,101572.56
2022-10-08T20:12:17.726Z,101565.72
2022-10-08T20:14:45.311Z,101572.59
2022-10-08T20:17:13.375Z,101575.91
2022-10-08T20:19:41.168Z,101578.25
2022-10-08T20:22:12.001Z,101577.25
2022-10-08T20:24:41.723Z,101580.44
2022-10-08T20:27:11.062Z,101581.88
2022-10-08T20:29:38.911Z,101589.19
2022-10-08T20:32:06.815Z,101585.38
2022-10-08T20:34:35.110Z,101591.03
2022-10-08T20:37:02.883Z,101592.19
2022-10-08T20:39:30.881Z,101590.72
2022-10-08T20:42:00.137Z,101593.69
2022-10-08T20:44:29.952Z,101593.38
2022-10-08T20:47:00.513Z,101588.16
2022-10-08T20:49:30.777Z,101596.72
2022-10-08T20:51:58.619Z,101601.44
2022-10-08T20:54:27.627Z,101604.44
2022-10-08T20:56:56.309Z,101596.16
2022-10-08T20:59:24.600Z,101600.53
2022-10-08T21:01:55.729Z,101594.47
2022-10-08T21:04:23.407Z,101595.75
2022-10-08T21:06:51.617Z,101607.34
2022-10-08T21:09:21.556Z,101603.03
2022-10-08T21:11:50.079Z,101614.22
2022-10-08T21:14:19.570Z,101603.41
2022-10-08T21:16:47.359Z,101612.03
2022-10-08T21:19:21.437Z,101614.22
2022-10-08T21:21:50.215Z,101616.91
2022-10-08T21:24:18.248Z,101619.28
2022-10-08T21:26:45.893Z,101622.66
2022-10-08T21:29:15.878Z,101621.13
2022-10-08T21:31:44.160Z,101622.16
2022-10-08T21:34:13.500Z,101615.94
2022-10-08T21:36:44.795Z,101626.31
2022-10-08T21:39:16.789Z,101621.66
2022-10-08T21:41:44.957Z,101624.34
2022-10-08T21:45:17.190Z,101625.34
2022-10-08T21:47:44.763Z,101623.41
2022-10-08T21:50:12.783Z,101626.28
2022-10-08T21:52:41.840Z,101626.72
2022-10-08T21:55:09.868Z,101634.03
2022-10-08T21:57:41.954Z,101627.09
2022-10-08T22:00:12.222Z,101632.31
2022-10-08T22:02:40.898Z,101628.94
2022-10-08T22:05:10.024Z,101633.91
2022-10-08T22:07:37.816Z,101622.59
2022-10-08T22:10:08.683Z,101628.28
2022-10-08T22:12:36.778Z,101625.97
2022-10-08T22:15:04.740Z,101626.41
2022-10-08T22:17:32.884Z,101625.16
2022-10-08T22:20:00.912Z,101630.63
2022-10-08T22:22:29.594Z,101628.72
2022-10-08T22:24:58.189Z,101638.78
2022-10-08T22:27:29.924Z,101625.47
2022-10-08T22:29:57.973Z,101625.53
2022-10-08T22:32:25.810Z,101627.19
2022-10-08T22:34:53.540Z,101612.84
2022-10-08T22:37:21.644Z,101622.09
2022-10-08T22:39:49.371Z,101621.56
2022-10-08T22:42:16.946Z,101616.25
2022-10-08T22:44:46.068Z,101624.53
2022-10-08T22:47:14.038Z,101629.91
2022-10-08T22:49:41.877Z,101630.75
2022-10-08T22:52:09.898Z,101631.34
2022-10-08T22:54:37.756Z,101640.06
2022-10-08T22:57:06.012Z,101641.75
2022-10-08T22:59:33.949Z,101646.19
2022-10-08T23:02:04.131Z,101650.25
2022-10-08T23:04:32.209Z,101656.66
2022-10-08T23:07:00.272Z,101657.06
2022-10-08T23:09:28.036Z,101666.03
2022-10-08T23:15:36.770Z,101667.97
2022-10-08T23:18:06.826Z,101660.63
2022-10-08T23:20:36.779Z,101666.59
2022-10-08T23:23:05.534Z,101671.78
2022-10-08T23:25:34.315Z,101660.53
2022-10-08T23:28:02.129Z,101672.59
2022-10-08T23:30:42.696Z,101677.72
2022-10-08T23:33:12.780Z,101676.84
2022-10-08T23:35:41.685Z,101674.78
2022-10-08T23:38:10.479Z,101679.50
2022-10-08T23:40:38.263Z,101687.91
2022-10-08T23:43:07.818Z,101686.28
2022-10-08T23:45:35.793Z,101692.28
2022-10-08T23:48:03.428Z,101701.16
2022-10-08T23:50:32.440Z,101690.81
2022-10-08T23:53:01.485Z,101696.06
2022-10-08T23:55:29.793Z,101690.13
2022-10-08T23:57:58.270Z,101684.66
